sensor_id;sensor_type;location;lat;lon;timestamp;temperature;humidity
40374;DHT22;26079;45.958;12.492;2022-11-02T00:03:39;15.20;99.90
40374;DHT22;26079;45.958;12.492;2022-11-02T00:06:05;15.20;99.90
40374;DHT22;26079;45.958;12.492;2022-11-02T00:08:30;15.30;99.90
40374;DHT22;26079;45.958;12.492;2022-11-02T00:10:56;15.30;99.90
40374;DHT22;26079;45.958;12.492;2022-11-02T00:13:22;15.30;99.90
40374;DHT22;26079;45.958;12.492;2022-11-02T00:15:47;15.30;99.90
40374;DHT22;26079;45.958;12.492;2022-11-02T00:18:14;15.30;99.90
40374;DHT22;26079;45.958;12.492;2022-11-02T00:20:41;15.20;99.90
40374;DHT22;26079;45.958;12.492;2022-11-02T00:23:08;15.20;99.90
40374;DHT22;26079;45.958;12.492;2022-11-02T00:25:55;15.20;99.90
40374;DHT22;26079;45.958;12.492;2022-11-02T00:28:21;15.20;99.90
40374;DHT22;26079;45.958;12.492;2022-11-02T00:30:47;15.20;99.90
40374;DHT22;26079;45.958;12.492;2022-11-02T00:33:13;15.20;99.90
40374;DHT22;26079;45.958;12.492;2022-11-02T00:35:38;15.30;99.90
40374;DHT22;26079;45.958;12.492;2022-11-02T00:38:04;15.20;99.90
40374;DHT22;26079;45.958;12.492;2022-11-02T00:40:30;15.30;99.90
40374;DHT22;26079;45.958;12.492;2022-11-02T00:42:56;15.30;99.90
40374;DHT22;26079;45.958;12.492;2022-11-02T00:45:21;15.30;99.90
40374;DHT22;26079;45.958;12.492;2022-11-02T00:47:48;15.30;99.90
40374;DHT22;26079;45.958;12.492;2022-11-02T00:50:13;15.40;99.90
40374;DHT22;26079;45.958;12.492;2022-11-02T00:52:39;15.30;99.90
40374;DHT22;26079;45.958;12.492;2022-11-02T00:55:07;15.30;99.90
40374;DHT22;26079;45.958;12.492;2022-11-02T00:57:34;15.30;99.90
40374;DHT22;26079;45.958;12.492;2022-11-02T00:59:59;15.30;99.90
40374;DHT22;26079;45.958;12.492;2022-11-02T01:02:25;15.30;99.90
40374;DHT22;26079;45.958;12.492;2022-11-02T01:04:51;15.30;99.90
40374;DHT22;26079;45.958;12.492;2022-11-02T01:07:17;15.20;99.90
40374;DHT22;26079;45.958;12.492;2022-11-02T01:09:42;15.20;99.90
40374;DHT22;26079;45.958;12.492;2022-11-02T01:12:08;15.10;99.90
40374;DHT22;26079;45.958;12.492;2022-11-02T01:14:34;15.10;99.90
40374;DHT22;26079;45.958;12.492;2022-11-02T01:17:00;15.10;99.90
40374;DHT22;26079;45.958;12.492;2022-11-02T01:19:26;15.00;99.90
40374;DHT22;26079;45.958;12.492;2022-11-02T01:21:51;14.90;99.90
40374;DHT22;26079;45.958;12.492;2022-11-02T01:24:17;14.80;99.90
40374;DHT22;26079;45.958;12.492;2022-11-02T01:26:43;14.80;99.90
40374;DHT22;26079;45.958;12.492;2022-11-02T01:29:08;14.70;99.90
40374;DHT22;26079;45.958;12.492;2022-11-02T01:31:34;14.70;99.90
40374;DHT22;26079;45.958;12.492;2022-11-02T01:34:00;14.60;99.90
40374;DHT22;26079;45.958;12.492;2022-11-02T01:36:25;14.50;99.90
40374;DHT22;26079;45.958;12.492;2022-11-02T01:38:51;14.50;99.90
40374;DHT22;26079;45.958;12.492;2022-11-02T01:41:19;14.40;99.90
40374;DHT22;26079;45.958;12.492;2022-11-02T01:43:47;14.40;99.90
40374;DHT22;26079;45.958;12.492;2022-11-02T01:46:15;14.30;99.90
40374;DHT22;26079;45.958;12.492;2022-11-02T01:49:25;14.30;99.90
40374;DHT22;26079;45.958;12.492;2022-11-02T01:51:41;14.30;99.90
40374;DHT22;26079;45.958;12.492;2022-11-02T01:54:15;14.20;99.90
40374;DHT22;26079;45.958;12.492;2022-11-02T01:56:44;14.10;99.90
40374;DHT22;26079;45.958;12.492;2022-11-02T01:59:13;14.10;99.90
40374;DHT22;26079;45.958;12.492;2022-11-02T02:01:40;14.00;99.90
40374;DHT22;26079;45.958;12.492;2022-11-02T02:04:06;14.10;99.90
40374;DHT22;26079;45.958;12.492;2022-11-02T02:06:32;14.10;99.90
40374;DHT22;26079;45.958;12.492;2022-11-02T02:09:02;14.10;99.90
40374;DHT22;26079;45.958;12.492;2022-11-02T02:13:58;14.10;99.90
40374;DHT22;26079;45.958;12.492;2022-11-02T02:19:40;14.20;99.90
40374;DHT22;26079;45.958;12.492;2022-11-02T02:22:21;14.20;99.90
40374;DHT22;26079;45.958;12.492;2022-11-02T02:33:47;14.20;99.90
40374;DHT22;26079;45.958;12.492;2022-11-02T02:36:28;14.20;99.90
40374;DHT22;26079;45.958;12.492;2022-11-02T02:39:10;14.10;99.90
40374;DHT22;26079;45.958;12.492;2022-11-02T02:42:20;14.10;99.90
40374;DHT22;26079;45.958;12.492;2022-11-02T02:44:29;14.10;99.90
40374;DHT22;26079;45.958;12.492;2022-11-02T02:47:01;14.10;99.90
40374;DHT22;26079;45.958;12.492;2022-11-02T02:49:52;14.00;99.90
40374;DHT22;26079;45.958;12.492;2022-11-02T02:52:19;13.90;99.90
40374;DHT22;26079;45.958;12.492;2022-11-02T02:54:47;13.90;99.90
40374;DHT22;26079;45.958;12.492;2022-11-02T02:57:20;13.90;99.90
40374;DHT22;26079;45.958;12.492;2022-11-02T02:59:48;13.90;99.90
40374;DHT22;26079;45.958;12.492;2022-11-02T03:02:24;13.90;99.90
40374;DHT22;26079;45.958;12.492;2022-11-02T03:04:51;13.90;99.90
40374;DHT22;26079;45.958;12.492;2022-11-02T03:07:25;13.80;99.90
40374;DHT22;26079;45.958;12.492;2022-11-02T03:10:06;13.80;99.90
40374;DHT22;26079;45.958;12.492;2022-11-02T03:15:15;13.90;99.90
40374;DHT22;26079;45.958;12.492;2022-11-02T03:17:51;13.90;99.90
40374;DHT22;26079;45.958;12.492;2022-11-02T03:23:12;13.90;99.90
40374;DHT22;26079;45.958;12.492;2022-11-02T03:28:56;13.80;99.90
40374;DHT22;26079;45.958;12.492;2022-11-02T03:34:04;13.90;99.90
40374;DHT22;26079;45.958;12.492;2022-11-02T03:36:39;13.90;99.90
40374;DHT22;26079;45.958;12.492;2022-11-02T03:39:10;13.90;99.90
40374;DHT22;26079;45.958;12.492;2022-11-02T03:41:38;13.90;99.90
40374;DHT22;26079;45.958;12.492;2022-11-02T03:44:13;13.90;99.90
40374;DHT22;26079;45.958;12.492;2022-11-02T03:46:42;13.90;99.90
40374;DHT22;26079;45.958;12.492;2022-11-02T03:49:12;13.90;99.90
40374;DHT22;26079;45.958;12.492;2022-11-02T03:51:41;13.90;99.90
40374;DHT22;26079;45.958;12.492;2022-11-02T03:54:17;13.90;99.90
40374;DHT22;26079;45.958;12.492;2022-11-02T03:56:47;13.90;99.90
40374;DHT22;26079;45.958;12.492;2022-11-02T03:59:14;13.90;99.90
40374;DHT22;26079;45.958;12.492;2022-11-02T04:01:47;13.90;99.90
40374;DHT22;26079;45.958;12.492;2022-11-02T04:04:14;13.90;99.90
40374;DHT22;26079;45.958;12.492;2022-11-02T04:06:40;13.90;99.90
40374;DHT22;26079;45.958;12.492;2022-11-02T04:09:07;13.90;99.90
40374;DHT22;26079;45.958;12.492;2022-11-02T04:11:34;13.90;99.90
40374;DHT22;26079;45.958;12.492;2022-11-02T04:14:19;13.90;99.90
40374;DHT22;26079;45.958;12.492;2022-11-02T04:17:03;13.90;99.90
40374;DHT22;26079;45.958;12.492;2022-11-02T04:19:47;13.90;99.90
40374;DHT22;26079;45.958;12.492;2022-11-02T04:22:13;13.90;99.90
40374;DHT22;26079;45.958;12.492;2022-11-02T04:24:57;13.90;99.90
40374;DHT22;26079;45.958;12.492;2022-11-02T04:27:42;14.00;99.90
40374;DHT22;26079;45.958;12.492;2022-11-02T04:30:08;14.00;99.90
40374;DHT22;26079;45.958;12.492;2022-11-02T04:32:45;14.00;99.90
40374;DHT22;26079;45.958;12.492;2022-11-02T04:35:30;14.00;99.90
40374;DHT22;26079;45.958;12.492;2022-11-02T04:37:56;14.00;99.90
40374;DHT22;26079;45.958;12.492;2022-11-02T04:40:40;14.00;99.90
40374;DHT22;26079;45.958;12.492;2022-11-02T04:43:06;14.00;99.90
40374;DHT22;26079;45.958;12.492;2022-11-02T04:45:32;13.90;99.90
40374;DHT22;26079;45.958;12.492;2022-11-02T04:48:03;13.90;99.90
40374;DHT22;26079;45.958;12.492;2022-11-02T04:50:28;13.90;99.90
40374;DHT22;26079;45.958;12.492;2022-11-02T04:53:00;13.90;99.90
40374;DHT22;26079;45.958;12.492;2022-11-02T04:55:26;13.90;99.90
40374;DHT22;26079;45.958;12.492;2022-11-02T04:57:52;13.90;99.90
40374;DHT22;26079;45.958;12.492;2022-11-02T05:00:20;14.00;99.90
40374;DHT22;26079;45.958;12.492;2022-11-02T05:02:47;14.00;99.90
40374;DHT22;26079;45.958;12.492;2022-11-02T05:05:14;14.00;99.90
40374;DHT22;26079;45.958;12.492;2022-11-02T05:07:39;13.90;99.90
40374;DHT22;26079;45.958;12.492;2022-11-02T05:10:06;13.90;99.90
40374;DHT22;26079;45.958;12.492;2022-11-02T05:12:32;13.90;99.90
40374;DHT22;26079;45.958;12.492;2022-11-02T05:15:00;14.00;99.90
40374;DHT22;26079;45.958;12.492;2022-11-02T05:17:26;14.00;99.90
40374;DHT22;26079;45.958;12.492;2022-11-02T05:19:52;13.90;99.90
40374;DHT22;26079;45.958;12.492;2022-11-02T05:22:17;13.90;99.90
40374;DHT22;26079;45.958;12.492;2022-11-02T05:24:43;13.90;99.90
40374;DHT22;26079;45.958;12.492;2022-11-02T05:27:11;13.90;99.90
40374;DHT22;26079;45.958;12.492;2022-11-02T05:29:37;13.90;99.90
40374;DHT22;26079;45.958;12.492;2022-11-02T05:32:03;13.80;99.90
40374;DHT22;26079;45.958;12.492;2022-11-02T05:34:29;13.90;99.90
40374;DHT22;26079;45.958;12.492;2022-11-02T05:36:54;13.90;99.90
40374;DHT22;26079;45.958;12.492;2022-11-02T05:39:20;13.90;99.90
40374;DHT22;26079;45.958;12.492;2022-11-02T05:41:46;14.00;99.90
40374;DHT22;26079;45.958;12.492;2022-11-02T05:44:11;14.00;99.90
40374;DHT22;26079;45.958;12.492;2022-11-02T05:46:37;14.00;99.90
40374;DHT22;26079;45.958;12.492;2022-11-02T05:49:03;14.00;99.90
40374;DHT22;26079;45.958;12.492;2022-11-02T05:51:28;14.00;99.90
40374;DHT22;26079;45.958;12.492;2022-11-02T05:53:54;14.10;99.90
40374;DHT22;26079;45.958;12.492;2022-11-02T05:56:20;14.10;99.90
40374;DHT22;26079;45.958;12.492;2022-11-02T05:58:45;14.20;99.90
40374;DHT22;26079;45.958;12.492;2022-11-02T06:01:11;14.20;99.90
40374;DHT22;26079;45.958;12.492;2022-11-02T06:03:37;14.20;99.90
40374;DHT22;26079;45.958;12.492;2022-11-02T06:06:05;14.20;99.90
40374;DHT22;26079;45.958;12.492;2022-11-02T06:08:32;14.20;99.90
40374;DHT22;26079;45.958;12.492;2022-11-02T06:11:02;14.10;99.90
40374;DHT22;26079;45.958;12.492;2022-11-02T06:13:28;14.10;99.90
40374;DHT22;26079;45.958;12.492;2022-11-02T06:15:53;14.10;99.90
40374;DHT22;26079;45.958;12.492;2022-11-02T06:18:22;14.10;99.90
40374;DHT22;26079;45.958;12.492;2022-11-02T06:20:48;14.10;99.90
40374;DHT22;26079;45.958;12.492;2022-11-02T06:23:14;14.10;99.90
40374;DHT22;26079;45.958;12.492;2022-11-02T06:25:42;14.10;99.90
40374;DHT22;26079;45.958;12.492;2022-11-02T06:28:08;14.10;99.90
40374;DHT22;26079;45.958;12.492;2022-11-02T06:30:34;14.10;99.90
40374;DHT22;26079;45.958;12.492;2022-11-02T06:33:00;14.10;99.90
40374;DHT22;26079;45.958;12.492;2022-11-02T06:35:25;14.20;99.90
40374;DHT22;26079;45.958;12.492;2022-11-02T06:37:54;14.20;99.90
40374;DHT22;26079;45.958;12.492;2022-11-02T06:40:19;14.20;99.90
40374;DHT22;26079;45.958;12.492;2022-11-02T06:42:48;14.30;99.90
40374;DHT22;26079;45.958;12.492;2022-11-02T06:45:13;14.20;99.90
40374;DHT22;26079;45.958;12.492;2022-11-02T06:47:39;14.30;99.90
40374;DHT22;26079;45.958;12.492;2022-11-02T06:50:06;14.40;99.90
40374;DHT22;26079;45.958;12.492;2022-11-02T06:52:31;14.40;99.90
40374;DHT22;26079;45.958;12.492;2022-11-02T06:54:57;14.40;99.90
40374;DHT22;26079;45.958;12.492;2022-11-02T06:57:23;14.50;99.90
40374;DHT22;26079;45.958;12.492;2022-11-02T06:59:48;14.40;99.90
40374;DHT22;26079;45.958;12.492;2022-11-02T07:02:14;14.50;99.90
40374;DHT22;26079;45.958;12.492;2022-11-02T07:04:40;14.50;99.90
40374;DHT22;26079;45.958;12.492;2022-11-02T07:07:06;14.60;99.90
40374;DHT22;26079;45.958;12.492;2022-11-02T07:09:31;14.70;99.90
40374;DHT22;26079;45.958;12.492;2022-11-02T07:11:57;14.70;99.90
40374;DHT22;26079;45.958;12.492;2022-11-02T07:14:23;14.70;99.90
40374;DHT22;26079;45.958;12.492;2022-11-02T07:16:48;14.50;99.90
40374;DHT22;26079;45.958;12.492;2022-11-02T07:19:14;14.40;99.90
40374;DHT22;26079;45.958;12.492;2022-11-02T07:21:40;14.40;99.90
40374;DHT22;26079;45.958;12.492;2022-11-02T07:24:05;14.40;99.90
40374;DHT22;26079;45.958;12.492;2022-11-02T07:26:31;14.40;99.90
40374;DHT22;26079;45.958;12.492;2022-11-02T07:28:57;14.40;99.90
40374;DHT22;26079;45.958;12.492;2022-11-02T07:31:26;14.40;99.90
40374;DHT22;26079;45.958;12.492;2022-11-02T07:33:51;14.50;99.90
40374;DHT22;26079;45.958;12.492;2022-11-02T07:36:17;14.60;99.90
40374;DHT22;26079;45.958;12.492;2022-11-02T07:38:43;14.60;99.90
40374;DHT22;26079;45.958;12.492;2022-11-02T07:41:11;14.50;99.90
40374;DHT22;26079;45.958;12.492;2022-11-02T07:43:37;14.50;99.90
40374;DHT22;26079;45.958;12.492;2022-11-02T07:46:03;14.50;99.90
40374;DHT22;26079;45.958;12.492;2022-11-02T07:48:28;14.60;99.90
40374;DHT22;26079;45.958;12.492;2022-11-02T07:50:57;14.70;99.90
40374;DHT22;26079;45.958;12.492;2022-11-02T07:53:23;14.80;99.90
40374;DHT22;26079;45.958;12.492;2022-11-02T07:55:48;14.90;99.90
40374;DHT22;26079;45.958;12.492;2022-11-02T07:58:14;15.00;99.90
40374;DHT22;26079;45.958;12.492;2022-11-02T08:00:41;15.00;99.90
40374;DHT22;26079;45.958;12.492;2022-11-02T08:03:08;15.10;99.90
40374;DHT22;26079;45.958;12.492;2022-11-02T08:05:36;15.20;99.90
40374;DHT22;26079;45.958;12.492;2022-11-02T08:08:13;15.30;99.90
40374;DHT22;26079;45.958;12.492;2022-11-02T08:10:40;15.40;99.90
40374;DHT22;26079;45.958;12.492;2022-11-02T08:13:07;15.50;99.90
40374;DHT22;26079;45.958;12.492;2022-11-02T08:15:33;15.60;99.90
40374;DHT22;26079;45.958;12.492;2022-11-02T08:18:13;15.70;99.90
40374;DHT22;26079;45.958;12.492;2022-11-02T08:20:42;15.70;99.90
40374;DHT22;26079;45.958;12.492;2022-11-02T08:23:10;15.80;99.90
40374;DHT22;26079;45.958;12.492;2022-11-02T08:25:36;15.90;99.90
40374;DHT22;26079;45.958;12.492;2022-11-02T08:28:03;15.90;99.90
40374;DHT22;26079;45.958;12.492;2022-11-02T08:30:31;16.00;99.90
40374;DHT22;26079;45.958;12.492;2022-11-02T08:33:05;16.10;99.90
40374;DHT22;26079;45.958;12.492;2022-11-02T08:35:31;16.20;99.90
40374;DHT22;26079;45.958;12.492;2022-11-02T08:37:57;16.20;99.90
40374;DHT22;26079;45.958;12.492;2022-11-02T08:40:25;16.30;99.90
40374;DHT22;26079;45.958;12.492;2022-11-02T08:43:06;16.40;99.90
40374;DHT22;26079;45.958;12.492;2022-11-02T08:45:33;16.40;99.90
40374;DHT22;26079;45.958;12.492;2022-11-02T08:48:01;16.40;99.90
40374;DHT22;26079;45.958;12.492;2022-11-02T08:50:28;16.50;99.90
40374;DHT22;26079;45.958;12.492;2022-11-02T08:52:53;16.60;99.90
40374;DHT22;26079;45.958;12.492;2022-11-02T08:55:19;16.60;99.90
40374;DHT22;26079;45.958;12.492;2022-11-02T09:00:15;16.80;99.90
40374;DHT22;26079;45.958;12.492;2022-11-02T09:02:41;16.80;99.90
40374;DHT22;26079;45.958;12.492;2022-11-02T09:05:08;17.00;99.90
40374;DHT22;26079;45.958;12.492;2022-11-02T09:07:34;17.10;99.90
40374;DHT22;26079;45.958;12.492;2022-11-02T09:09:59;17.10;99.90
40374;DHT22;26079;45.958;12.492;2022-11-02T09:12:25;17.20;99.90
40374;DHT22;26079;45.958;12.492;2022-11-02T09:14:51;17.30;99.90
40374;DHT22;26079;45.958;12.492;2022-11-02T09:17:16;17.30;99.90
40374;DHT22;26079;45.958;12.492;2022-11-02T09:19:42;17.40;99.90
40374;DHT22;26079;45.958;12.492;2022-11-02T09:22:08;17.60;99.90
40374;DHT22;26079;45.958;12.492;2022-11-02T09:24:34;17.70;99.90
40374;DHT22;26079;45.958;12.492;2022-11-02T09:26:59;17.90;99.80
40374;DHT22;26079;45.958;12.492;2022-11-02T09:29:25;18.00;99.90
40374;DHT22;26079;45.958;12.492;2022-11-02T09:31:51;18.10;99.90
40374;DHT22;26079;45.958;12.492;2022-11-02T09:34:17;18.10;98.60
40374;DHT22;26079;45.958;12.492;2022-11-02T09:36:42;18.10;98.70
40374;DHT22;26079;45.958;12.492;2022-11-02T09:39:08;18.10;99.20
40374;DHT22;26079;45.958;12.492;2022-11-02T09:41:44;18.10;99.10
40374;DHT22;26079;45.958;12.492;2022-11-02T09:44:20;18.10;99.60
40374;DHT22;26079;45.958;12.492;2022-11-02T09:46:49;18.30;99.30
40374;DHT22;26079;45.958;12.492;2022-11-02T09:49:17;18.40;98.30
40374;DHT22;26079;45.958;12.492;2022-11-02T09:56:50;18.50;98.70
40374;DHT22;26079;45.958;12.492;2022-11-02T09:59:21;18.50;98.10
40374;DHT22;26079;45.958;12.492;2022-11-02T10:16:14;19.20;95.80
40374;DHT22;26079;45.958;12.492;2022-11-02T10:18:42;19.20;95.40
40374;DHT22;26079;45.958;12.492;2022-11-02T10:21:19;19.20;96.70
40374;DHT22;26079;45.958;12.492;2022-11-02T10:23:52;19.20;97.00
40374;DHT22;26079;45.958;12.492;2022-11-02T10:26:28;19.30;96.00
40374;DHT22;26079;45.958;12.492;2022-11-02T10:28:58;19.40;95.60
40374;DHT22;26079;45.958;12.492;2022-11-02T10:31:34;19.30;94.50
40374;DHT22;26079;45.958;12.492;2022-11-02T10:42:18;19.10;96.70
40374;DHT22;26079;45.958;12.492;2022-11-02T10:50:40;19.50;95.30
40374;DHT22;26079;45.958;12.492;2022-11-02T10:53:14;19.50;94.90
40374;DHT22;26079;45.958;12.492;2022-11-02T10:55:59;19.50;95.40
40374;DHT22;26079;45.958;12.492;2022-11-02T10:58:27;19.50;94.80
40374;DHT22;26079;45.958;12.492;2022-11-02T11:01:09;19.50;94.50
40374;DHT22;26079;45.958;12.492;2022-11-02T11:03:56;19.50;93.60
40374;DHT22;26079;45.958;12.492;2022-11-02T11:06:23;19.50;93.20
40374;DHT22;26079;45.958;12.492;2022-11-02T11:08:51;19.50;93.80
40374;DHT22;26079;45.958;12.492;2022-11-02T11:11:28;19.60;93.80
40374;DHT22;26079;45.958;12.492;2022-11-02T11:13:57;19.70;93.80
40374;DHT22;26079;45.958;12.492;2022-11-02T11:21:43;19.60;94.20
40374;DHT22;26079;45.958;12.492;2022-11-02T11:24:25;19.70;94.50
40374;DHT22;26079;45.958;12.492;2022-11-02T11:27:12;19.70;94.10
40374;DHT22;26079;45.958;12.492;2022-11-02T11:29:48;19.60;93.40
40374;DHT22;26079;45.958;12.492;2022-11-02T11:32:25;19.60;94.30
40374;DHT22;26079;45.958;12.492;2022-11-02T11:34:58;19.70;94.00
40374;DHT22;26079;45.958;12.492;2022-11-02T11:37:25;19.80;93.80
40374;DHT22;26079;45.958;12.492;2022-11-02T11:39:55;19.90;93.20
40374;DHT22;26079;45.958;12.492;2022-11-02T11:42:25;20.00;93.00
40374;DHT22;26079;45.958;12.492;2022-11-02T11:45:05;19.90;92.20
40374;DHT22;26079;45.958;12.492;2022-11-02T11:47:35;19.80;93.00
40374;DHT22;26079;45.958;12.492;2022-11-02T11:50:21;19.90;93.00
40374;DHT22;26079;45.958;12.492;2022-11-02T11:53:24;19.90;93.40
40374;DHT22;26079;45.958;12.492;2022-11-02T11:55:53;19.90;93.20
40374;DHT22;26079;45.958;12.492;2022-11-02T12:03:58;20.10;92.50
40374;DHT22;26079;45.958;12.492;2022-11-02T12:12:10;20.00;91.80
40374;DHT22;26079;45.958;12.492;2022-11-02T12:29:45;19.60;92.40
40374;DHT22;26079;45.958;12.492;2022-11-02T12:35:46;19.60;91.90
40374;DHT22;26079;45.958;12.492;2022-11-02T12:43:44;19.80;91.00
40374;DHT22;26079;45.958;12.492;2022-11-02T12:54:48;19.90;90.80
40374;DHT22;26079;45.958;12.492;2022-11-02T12:57:21;19.90;90.30
40374;DHT22;26079;45.958;12.492;2022-11-02T12:59:51;19.90;91.20
40374;DHT22;26079;45.958;12.492;2022-11-02T13:02:28;19.90;91.40
40374;DHT22;26079;45.958;12.492;2022-11-02T13:05:01;19.90;90.10
40374;DHT22;26079;45.958;12.492;2022-11-02T13:07:41;20.00;89.00
40374;DHT22;26079;45.958;12.492;2022-11-02T13:10:16;20.00;89.30
40374;DHT22;26079;45.958;12.492;2022-11-02T13:12:50;19.90;90.00
40374;DHT22;26079;45.958;12.492;2022-11-02T13:15:19;19.80;90.20
40374;DHT22;26079;45.958;12.492;2022-11-02T13:18:09;19.80;89.40
40374;DHT22;26079;45.958;12.492;2022-11-02T13:25:53;19.80;90.20
40374;DHT22;26079;45.958;12.492;2022-11-02T13:33:53;19.70;91.50
40374;DHT22;26079;45.958;12.492;2022-11-02T13:36:19;19.70;90.70
40374;DHT22;26079;45.958;12.492;2022-11-02T13:39:01;19.60;91.10
40374;DHT22;26079;45.958;12.492;2022-11-02T13:41:56;19.50;91.10
40374;DHT22;26079;45.958;12.492;2022-11-02T13:49:53;19.20;92.70
40374;DHT22;26079;45.958;12.492;2022-11-02T13:52:27;19.30;91.80
40374;DHT22;26079;45.958;12.492;2022-11-02T13:54:58;19.20;91.90
40374;DHT22;26079;45.958;12.492;2022-11-02T14:00:01;19.20;92.90
40374;DHT22;26079;45.958;12.492;2022-11-02T14:02:30;19.30;93.30
40374;DHT22;26079;45.958;12.492;2022-11-02T14:04:57;19.10;93.60
40374;DHT22;26079;45.958;12.492;2022-11-02T14:07:34;19.00;94.20
40374;DHT22;26079;45.958;12.492;2022-11-02T14:10:07;18.90;94.20
40374;DHT22;26079;45.958;12.492;2022-11-02T14:12:44;18.90;93.90
40374;DHT22;26079;45.958;12.492;2022-11-02T14:20:35;18.70;95.30
40374;DHT22;26079;45.958;12.492;2022-11-02T14:25:54;18.60;96.20
40374;DHT22;26079;45.958;12.492;2022-11-02T14:36:54;18.20;98.20
40374;DHT22;26079;45.958;12.492;2022-11-02T14:47:45;17.80;99.90
40374;DHT22;26079;45.958;12.492;2022-11-02T14:52:37;17.70;99.90
40374;DHT22;26079;45.958;12.492;2022-11-02T14:55:21;17.60;99.90
40374;DHT22;26079;45.958;12.492;2022-11-02T15:00:52;17.50;99.90
40374;DHT22;26079;45.958;12.492;2022-11-02T15:06:22;17.30;99.90
40374;DHT22;26079;45.958;12.492;2022-11-02T15:08:58;17.20;99.90
40374;DHT22;26079;45.958;12.492;2022-11-02T15:11:50;17.10;99.90
40374;DHT22;26079;45.958;12.492;2022-11-02T15:19:43;17.00;99.90
40374;DHT22;26079;45.958;12.492;2022-11-02T15:22:47;17.00;99.90
40374;DHT22;26079;45.958;12.492;2022-11-02T15:27:50;17.00;99.90
40374;DHT22;26079;45.958;12.492;2022-11-02T15:30:19;17.00;99.90
40374;DHT22;26079;45.958;12.492;2022-11-02T15:32:55;17.00;99.90
40374;DHT22;26079;45.958;12.492;2022-11-02T15:35:24;17.00;99.90
40374;DHT22;26079;45.958;12.492;2022-11-02T15:38:03;17.00;99.90
40374;DHT22;26079;45.958;12.492;2022-11-02T15:41:03;16.90;99.90
40374;DHT22;26079;45.958;12.492;2022-11-02T16:00:33;16.70;99.90
40374;DHT22;26079;45.958;12.492;2022-11-02T16:03:04;16.70;99.90
40374;DHT22;26079;45.958;12.492;2022-11-02T16:05:44;16.60;99.90
40374;DHT22;26079;45.958;12.492;2022-11-02T16:08:31;16.60;99.90
40374;DHT22;26079;45.958;12.492;2022-11-02T16:11:05;16.60;99.90
40374;DHT22;26079;45.958;12.492;2022-11-02T16:13:34;16.60;99.90
40374;DHT22;26079;45.958;12.492;2022-11-02T16:16:07;16.50;99.90
40374;DHT22;26079;45.958;12.492;2022-11-02T16:18:37;16.50;99.90
40374;DHT22;26079;45.958;12.492;2022-11-02T16:21:05;16.50;99.90
40374;DHT22;26079;45.958;12.492;2022-11-02T16:23:35;16.50;99.90
40374;DHT22;26079;45.958;12.492;2022-11-02T16:26:03;16.40;99.90
40374;DHT22;26079;45.958;12.492;2022-11-02T16:28:33;16.40;99.90
40374;DHT22;26079;45.958;12.492;2022-11-02T16:31:15;16.40;99.90
40374;DHT22;26079;45.958;12.492;2022-11-02T16:33:51;16.40;99.90
40374;DHT22;26079;45.958;12.492;2022-11-02T16:36:26;16.40;99.90
40374;DHT22;26079;45.958;12.492;2022-11-02T16:38:59;16.40;99.90
40374;DHT22;26079;45.958;12.492;2022-11-02T16:41:26;16.40;99.90
40374;DHT22;26079;45.958;12.492;2022-11-02T16:43:53;16.40;99.90
40374;DHT22;26079;45.958;12.492;2022-11-02T16:46:29;16.40;99.90
40374;DHT22;26079;45.958;12.492;2022-11-02T16:49:13;16.40;99.90
40374;DHT22;26079;45.958;12.492;2022-11-02T16:51:40;16.30;99.90
40374;DHT22;26079;45.958;12.492;2022-11-02T16:59:35;16.30;99.90
40374;DHT22;26079;45.958;12.492;2022-11-02T17:02:03;16.20;99.90
40374;DHT22;26079;45.958;12.492;2022-11-02T17:04:30;16.20;99.90
40374;DHT22;26079;45.958;12.492;2022-11-02T17:07:20;16.30;99.90
40374;DHT22;26079;45.958;12.492;2022-11-02T17:09:52;16.20;99.90
40374;DHT22;26079;45.958;12.492;2022-11-02T17:12:22;16.20;99.90
40374;DHT22;26079;45.958;12.492;2022-11-02T17:14:52;16.20;99.90
40374;DHT22;26079;45.958;12.492;2022-11-02T17:19:53;16.20;99.90
40374;DHT22;26079;45.958;12.492;2022-11-02T17:24:45;16.20;99.90
40374;DHT22;26079;45.958;12.492;2022-11-02T17:27:23;16.10;99.90
40374;DHT22;26079;45.958;12.492;2022-11-02T17:29:50;16.10;99.90
40374;DHT22;26079;45.958;12.492;2022-11-02T17:32:17;16.10;99.90
40374;DHT22;26079;45.958;12.492;2022-11-02T17:34:54;16.00;99.90
40374;DHT22;26079;45.958;12.492;2022-11-02T17:37:24;16.00;99.90
40374;DHT22;26079;45.958;12.492;2022-11-02T17:39:50;16.00;99.90
40374;DHT22;26079;45.958;12.492;2022-11-02T17:42:17;16.00;99.90
40374;DHT22;26079;45.958;12.492;2022-11-02T17:45:23;16.00;99.90
40374;DHT22;26079;45.958;12.492;2022-11-02T17:47:49;16.00;99.90
40374;DHT22;26079;45.958;12.492;2022-11-02T17:50:15;16.00;99.90
40374;DHT22;26079;45.958;12.492;2022-11-02T17:52:41;15.90;99.90
40374;DHT22;26079;45.958;12.492;2022-11-02T17:55:13;15.90;99.90
40374;DHT22;26079;45.958;12.492;2022-11-02T17:57:39;15.90;99.90
40374;DHT22;26079;45.958;12.492;2022-11-02T18:00:05;15.90;99.90
40374;DHT22;26079;45.958;12.492;2022-11-02T18:02:30;15.90;99.90
40374;DHT22;26079;45.958;12.492;2022-11-02T18:04:56;15.90;99.90
40374;DHT22;26079;45.958;12.492;2022-11-02T18:07:22;15.80;99.90
40374;DHT22;26079;45.958;12.492;2022-11-02T18:09:48;15.80;99.90
40374;DHT22;26079;45.958;12.492;2022-11-02T18:12:14;15.80;99.90
40374;DHT22;26079;45.958;12.492;2022-11-02T18:14:40;15.80;99.90
40374;DHT22;26079;45.958;12.492;2022-11-02T18:17:06;15.80;99.90
40374;DHT22;26079;45.958;12.492;2022-11-02T18:19:32;15.80;99.90
40374;DHT22;26079;45.958;12.492;2022-11-02T18:21:59;15.80;99.90
40374;DHT22;26079;45.958;12.492;2022-11-02T18:24:25;15.80;99.90
40374;DHT22;26079;45.958;12.492;2022-11-02T18:26:50;15.80;99.90
40374;DHT22;26079;45.958;12.492;2022-11-02T18:29:16;15.80;99.90
40374;DHT22;26079;45.958;12.492;2022-11-02T18:31:42;15.80;99.90
40374;DHT22;26079;45.958;12.492;2022-11-02T18:34:10;15.80;99.90
40374;DHT22;26079;45.958;12.492;2022-11-02T18:36:39;15.80;99.90
40374;DHT22;26079;45.958;12.492;2022-11-02T18:39:05;15.80;99.90
40374;DHT22;26079;45.958;12.492;2022-11-02T18:41:32;15.80;99.90
40374;DHT22;26079;45.958;12.492;2022-11-02T18:44:05;15.80;99.90
40374;DHT22;26079;45.958;12.492;2022-11-02T18:46:34;15.80;99.90
40374;DHT22;26079;45.958;12.492;2022-11-02T18:49:00;15.80;99.90
40374;DHT22;26079;45.958;12.492;2022-11-02T18:51:26;15.70;99.90
40374;DHT22;26079;45.958;12.492;2022-11-02T18:54:01;15.70;99.90